Mexico, MO

7:09 PM CST on March 03, 2015 (GMT -0600)
KMOMEXIC4 | Change Station
CLOSE
Current Station
Personal Weather Station
Location: Mexico, MO
Elevation: 778 ft
Nearby Weather Stations

Elev 778 ft 39.17 °N, 91.87 °W | Updated 11 minutes ago

Overcast
Overcast
38.3 °F
Feels Like 38 °F
N
1.0
Wind Variable Wind from WNW
Gusts 2.0 mph

Today
High -- | Low -- °F
--% Chance of Precip.
Yesterday
High -- | Low -- °F
Precip. -- in
6:37 AM 6:01 PM
Waxing Gibbous, 97% visible
Pressure 29.92 in
Visibility 4.0 miles
Clouds Overcast 1600 ft
Windchill 38 °F
Dew Point 36 °F
Humidity 92%
Rainfall 0.05 in
Snow Depth Not available.
UV 0 out of 12
Pollen 5.20 out of 12
Air Quality Not available.
Flu Activity Not available.
METAR KCOU 040054Z 32008KT 4SM BR OVC016 03/03 A2990 RMK AO2 RAE08 SLP131 P0000 T00330028

More Conditions Fewer Conditions

Pressure 29.92 in
Visibility 4.0 miles
Clouds Overcast 1600 ft
Windchill 38 °F
Dew Point 36 °F
Humidity 92%
Rainfall 0.05 in
Snow Depth Not available.
UV 0 out of 12
Pollen 5.20 out of 12
Air Quality Not available.
Flu Activity Not available.
METAR KCOU 040054Z 32008KT 4SM BR OVC016 03/03 A2990 RMK AO2 RAE08 SLP131 P0000 T00330028

More Conditions Fewer Conditions

10-Day Weather Forecast

Almanac

Astronomy

Mar. 03, 2015 Rise Set
Actual Time
Civil Twilight
Nautical Twilight
Astronomical Twilight
Moon
Length of Visible Light
Length of Day
Tomorrow will be .
, % of the Moon is Illuminated

Today's Extremes

State Highs State Lows

Community

WunderPhotos

Upload Photos

1,802,340 photos uploaded!

WunderBlogs® & News

Nearby

Air Quality

  Air Quality AQ Index Pollutant
Not available.

Snow Depth

Station Depth Elevation

Earthquake Activity

City Distance Mag. Time & Date
Minimum magnitude displayed is 2.5.

Coastal Water Temperatures

Place Temperature

Nearby Weather Stations